createdAt,value
2022-11-03T00:02:10.742Z,99.90
2022-11-03T00:04:38.859Z,99.90
2022-11-03T00:07:06.999Z,99.90
2022-11-03T00:09:34.923Z,99.90
2022-11-03T00:12:03.039Z,99.90
2022-11-03T00:14:33.766Z,99.90
2022-11-03T00:17:03.108Z,99.90
2022-11-03T00:19:31.046Z,99.90
2022-11-03T00:21:59.422Z,99.90
2022-11-03T00:24:29.871Z,99.90
2022-11-03T00:26:57.833Z,99.90
2022-11-03T00:29:27.852Z,99.90
2022-11-03T00:31:55.887Z,99.90
2022-11-03T00:34:27.438Z,99.90
2022-11-03T00:36:55.656Z,99.90
2022-11-03T00:39:23.600Z,99.90
2022-11-03T00:41:53.495Z,99.90
2022-11-03T00:44:23.994Z,99.90
2022-11-03T00:46:53.053Z,99.90
2022-11-03T00:49:21.101Z,99.90
2022-11-03T00:51:50.437Z,99.90
2022-11-03T00:54:18.435Z,99.90
2022-11-03T00:56:46.382Z,99.90
2022-11-03T00:59:14.529Z,99.90
2022-11-03T01:01:47.167Z,99.90
2022-11-03T01:04:33.376Z,99.90
2022-11-03T01:07:04.120Z,99.90
2022-11-03T01:09:35.576Z,99.90
2022-11-03T01:12:06.955Z,99.90
2022-11-03T01:14:37.234Z,99.90
2022-11-03T01:17:06.869Z,99.90
2022-11-03T01:19:34.924Z,99.90
2022-11-03T01:22:07.835Z,99.90
2022-11-03T01:24:39.291Z,99.90
2022-11-03T01:27:07.342Z,99.90
2022-11-03T01:29:35.318Z,99.90
2022-11-03T01:32:03.269Z,99.90
2022-11-03T01:34:31.613Z,99.90
2022-11-03T01:36:59.593Z,99.90
2022-11-03T01:39:28.913Z,99.90
2022-11-03T01:41:56.872Z,99.90
2022-11-03T01:44:35.427Z,99.90
2022-11-03T01:47:12.778Z,99.90
2022-11-03T01:49:45.620Z,99.90
2022-11-03T01:52:21.149Z,99.90
2022-11-03T01:54:54.280Z,99.90
2022-11-03T01:57:28.137Z,99.90
2022-11-03T01:59:58.959Z,99.90
2022-11-03T02:02:28.492Z,99.90
2022-11-03T02:05:00.476Z,99.90
2022-11-03T02:07:34.974Z,99.90
2022-11-03T02:10:04.639Z,99.90
2022-11-03T02:12:33.922Z,99.90
2022-11-03T02:15:07.014Z,99.90
2022-11-03T02:17:36.978Z,99.90
2022-11-03T02:20:08.593Z,99.90
2022-11-03T02:22:55.624Z,99.90
2022-11-03T02:25:52.760Z,99.90
2022-11-03T02:28:23.329Z,99.90
2022-11-03T02:30:58.826Z,99.90
2022-11-03T02:33:36.736Z,99.90
2022-11-03T02:36:12.932Z,99.90
2022-11-03T02:38:48.563Z,99.90
2022-11-03T02:41:19.366Z,99.90
2022-11-03T02:43:51.992Z,99.90
2022-11-03T02:46:20.787Z,99.90
2022-11-03T02:48:49.127Z,99.90
2022-11-03T02:51:17.299Z,99.90
2022-11-03T02:53:51.281Z,99.90
2022-11-03T02:56:24.632Z,99.90
2022-11-03T02:58:57.967Z,99.90
2022-11-03T03:01:29.458Z,99.90
2022-11-03T03:04:00.867Z,99.90
2022-11-03T03:06:34.027Z,99.90
2022-11-03T03:09:05.884Z,99.90
2022-11-03T03:11:40.033Z,99.90
2022-11-03T03:14:12.705Z,99.90
2022-11-03T03:16:48.744Z,99.90
2022-11-03T03:19:24.320Z,99.90
2022-11-03T03:21:55.633Z,99.90
2022-11-03T03:24:30.968Z,99.90
2022-11-03T03:27:04.927Z,99.90
2022-11-03T03:29:38.786Z,99.90
2022-11-03T03:32:10.689Z,99.90
2022-11-03T03:34:42.848Z,99.90
2022-11-03T03:37:13.311Z,99.90
2022-11-03T03:39:47.350Z,99.90
2022-11-03T03:42:18.486Z,99.90
2022-11-03T03:44:48.060Z,99.90
2022-11-03T03:47:22.343Z,99.90
2022-11-03T03:49:50.432Z,99.90
2022-11-03T03:52:19.058Z,99.90
2022-11-03T03:54:47.083Z,99.90
2022-11-03T03:57:18.446Z,99.90
2022-11-03T03:59:47.902Z,99.90
2022-11-03T04:02:16.341Z,99.90
2022-11-03T04:04:44.473Z,99.90
2022-11-03T04:07:30.186Z,99.90
2022-11-03T04:09:58.239Z,99.90
2022-11-03T04:12:44.954Z,99.90
2022-11-03T04:15:31.571Z,99.90
2022-11-03T04:18:17.005Z,99.90
2022-11-03T04:21:02.901Z,99.90
2022-11-03T04:23:31.017Z,99.90
2022-11-03T04:26:00.190Z,99.90
2022-11-03T04:28:30.200Z,99.90
2022-11-03T04:30:59.563Z,99.90
2022-11-03T04:33:30.001Z,99.90
2022-11-03T04:36:00.333Z,99.90
2022-11-03T04:38:30.341Z,99.90
2022-11-03T04:41:00.068Z,99.90
2022-11-03T04:43:35.803Z,99.90
2022-11-03T04:46:04.231Z,99.90
2022-11-03T04:48:32.455Z,99.90
2022-11-03T04:51:11.626Z,99.90
2022-11-03T04:53:41.374Z,99.90
2022-11-03T04:56:16.366Z,99.90
2022-11-03T04:58:47.754Z,99.90
2022-11-03T05:01:23.677Z,99.90
2022-11-03T05:03:54.199Z,99.90
2022-11-03T05:06:24.157Z,99.90
2022-11-03T05:08:56.063Z,99.90
2022-11-03T05:11:32.220Z,99.90
2022-11-03T05:14:03.863Z,99.90
2022-11-03T05:16:32.570Z,99.90
2022-11-03T05:19:01.661Z,99.90
2022-11-03T05:21:29.983Z,99.90
2022-11-03T05:24:03.361Z,99.90
2022-11-03T05:26:34.213Z,99.90
2022-11-03T05:29:10.557Z,99.90
2022-11-03T05:31:41.642Z,99.90
2022-11-03T05:34:26.525Z,99.90
2022-11-03T05:36:54.712Z,99.90
2022-11-03T05:39:30.963Z,99.90
2022-11-03T05:42:00.424Z,99.90
2022-11-03T05:44:36.811Z,99.90
2022-11-03T05:47:09.908Z,99.90
2022-11-03T05:49:37.902Z,99.90
2022-11-03T05:52:14.354Z,99.90
2022-11-03T05:54:42.406Z,99.90
2022-11-03T05:57:14.375Z,99.90
2022-11-03T05:59:46.982Z,99.90
2022-11-03T06:02:30.976Z,99.90
2022-11-03T06:04:59.279Z,99.90
2022-11-03T06:07:29.623Z,99.90
2022-11-03T06:09:58.716Z,99.90
2022-11-03T06:12:27.552Z,99.90
2022-11-03T06:14:56.891Z,99.90
2022-11-03T06:17:27.206Z,99.90
2022-11-03T06:19:57.229Z,99.90
2022-11-03T06:22:30.543Z,99.90
2022-11-03T06:25:00.945Z,99.90
2022-11-03T06:27:32.218Z,99.90
2022-11-03T06:30:04.493Z,99.90
2022-11-03T06:32:34.677Z,99.90
2022-11-03T06:35:02.773Z,99.90
2022-11-03T06:37:33.651Z,99.90
2022-11-03T06:40:03.286Z,99.90
2022-11-03T06:42:34.071Z,99.90
2022-11-03T06:45:13.939Z,99.90
2022-11-03T06:47:42.337Z,99.90
2022-11-03T06:50:23.072Z,99.90
2022-11-03T06:52:51.634Z,99.90
2022-11-03T06:55:25.222Z,99.90
2022-11-03T06:57:56.182Z,99.90
2022-11-03T07:00:35.712Z,99.90
2022-11-03T07:03:10.623Z,99.90
2022-11-03T07:05:40.210Z,99.90
2022-11-03T07:08:18.166Z,99.90
2022-11-03T07:10:46.358Z,99.90
2022-11-03T07:13:18.750Z,99.90
2022-11-03T07:15:48.185Z,99.90
2022-11-03T07:18:23.200Z,99.90
2022-11-03T07:20:52.900Z,99.90
2022-11-03T07:23:25.027Z,99.90
2022-11-03T07:25:57.690Z,99.90
2022-11-03T07:28:31.029Z,99.90
2022-11-03T07:31:02.442Z,99.90
2022-11-03T07:33:32.503Z,99.90
2022-11-03T07:36:17.324Z,99.90
2022-11-03T07:38:48.071Z,99.90
2022-11-03T07:41:20.411Z,99.90
2022-11-03T07:43:54.596Z,99.90
2022-11-03T07:46:25.620Z,99.90
2022-11-03T07:48:57.615Z,99.90
2022-11-03T07:51:28.552Z,99.90
2022-11-03T07:53:59.572Z,99.90
2022-11-03T07:56:29.302Z,99.90
2022-11-03T07:59:02.393Z,99.90
2022-11-03T08:01:34.166Z,99.90
2022-11-03T08:04:05.471Z,99.90
2022-11-03T08:06:34.181Z,99.90
2022-11-03T08:09:02.232Z,99.90
2022-11-03T08:11:30.264Z,99.90
2022-11-03T08:13:58.439Z,99.90
2022-11-03T08:16:26.570Z,99.90
2022-11-03T08:18:56.073Z,99.90
2022-11-03T08:21:24.277Z,99.90
2022-11-03T08:23:52.583Z,99.90
2022-11-03T08:26:20.933Z,99.90
2022-11-03T08:28:49.141Z,99.90
2022-11-03T08:31:17.333Z,99.90
2022-11-03T08:33:45.683Z,99.90
2022-11-03T08:36:15.153Z,99.90
2022-11-03T08:38:43.128Z,99.90
2022-11-03T08:41:11.155Z,99.90
2022-11-03T08:43:39.075Z,99.90
2022-11-03T08:46:16.725Z,99.90
2022-11-03T08:48:46.232Z,99.90
2022-11-03T08:51:16.647Z,99.90
2022-11-03T08:53:45.130Z,99.90
2022-11-03T08:56:15.072Z,99.90
2022-11-03T08:58:44.543Z,99.90
2022-11-03T09:01:12.617Z,99.90
2022-11-03T09:03:41.026Z,99.90
2022-11-03T09:06:09.535Z,99.90
2022-11-03T09:11:26.867Z,99.90
2022-11-03T09:13:55.195Z,99.90
2022-11-03T09:16:23.108Z,99.80
2022-11-03T09:18:51.152Z,98.30
2022-11-03T09:21:19.132Z,97.60
2022-11-03T09:23:48.445Z,98.20
2022-11-03T09:26:16.478Z,97.60
2022-11-03T09:28:44.609Z,97.20
2022-11-03T09:31:12.701Z,96.70
2022-11-03T09:33:40.709Z,95.90
2022-11-03T09:36:09.279Z,97.10
2022-11-03T09:38:37.255Z,97.10
2022-11-03T09:41:18.630Z,96.80
2022-11-03T09:43:55.514Z,97.60
2022-11-03T09:46:23.553Z,97.60
2022-11-03T09:48:51.529Z,97.40
2022-11-03T09:51:21.896Z,97.10
2022-11-03T09:53:50.277Z,95.60
2022-11-03T09:56:23.070Z,95.30
2022-11-03T09:58:54.501Z,96.10
2022-11-03T10:01:23.549Z,94.90
2022-11-03T10:03:51.920Z,94.00
2022-11-03T10:06:21.143Z,93.80
2022-11-03T10:08:49.774Z,94.90
2022-11-03T10:11:19.370Z,95.50
2022-11-03T10:13:52.855Z,95.10
2022-11-03T10:16:23.630Z,95.20
2022-11-03T10:18:52.237Z,94.50
2022-11-03T10:21:23.374Z,93.90
2022-11-03T10:23:51.318Z,93.20
2022-11-03T10:26:21.671Z,92.80
2022-11-03T10:29:00.472Z,92.20
2022-11-03T10:31:36.498Z,92.10
2022-11-03T10:34:05.844Z,92.00
2022-11-03T10:36:35.239Z,92.50
2022-11-03T10:39:25.533Z,93.10
2022-11-03T10:42:02.099Z,92.90
2022-11-03T10:44:31.350Z,91.30
2022-11-03T10:47:01.125Z,91.00
2022-11-03T10:49:30.432Z,90.90
2022-11-03T10:52:20.910Z,90.70
2022-11-03T10:54:49.583Z,90.20
2022-11-03T10:57:19.407Z,89.40
2022-11-03T10:59:49.916Z,91.20
2022-11-03T11:02:20.121Z,92.90
2022-11-03T11:04:50.045Z,91.70
2022-11-03T11:07:25.094Z,92.10
2022-11-03T11:09:54.211Z,92.20
2022-11-03T11:12:26.133Z,91.70
2022-11-03T11:14:56.739Z,91.40
2022-11-03T11:17:47.964Z,91.40
2022-11-03T11:20:31.552Z,90.00
2022-11-03T11:23:14.254Z,90.80
2022-11-03T11:26:07.394Z,90.70
2022-11-03T11:28:37.620Z,92.50
2022-11-03T11:31:30.892Z,91.90
2022-11-03T11:34:36.416Z,91.60
2022-11-03T11:37:35.526Z,92.40
2022-11-03T11:40:09.860Z,93.20
2022-11-03T11:43:18.690Z,93.30
2022-11-03T11:46:19.132Z,93.70
2022-11-03T11:48:51.327Z,93.90
2022-11-03T11:51:19.314Z,95.30
2022-11-03T11:53:58.755Z,95.70
2022-11-03T11:56:43.761Z,97.10
2022-11-03T11:59:23.992Z,97.50
2022-11-03T12:01:55.174Z,98.20
2022-11-03T12:04:29.050Z,98.70
2022-11-03T12:06:57.663Z,99.20
2022-11-03T12:09:28.166Z,99.90
2022-11-03T12:11:59.383Z,99.90
2022-11-03T12:14:35.317Z,99.90
2022-11-03T12:17:34.405Z,99.90
2022-11-03T12:20:36.749Z,99.90
2022-11-03T12:23:04.810Z,99.90
2022-11-03T12:25:37.456Z,99.90
2022-11-03T12:28:06.007Z,99.80
2022-11-03T12:30:39.418Z,99.90
2022-11-03T12:33:08.310Z,99.90
2022-11-03T12:35:38.543Z,99.90
2022-11-03T12:38:06.583Z,99.90
2022-11-03T12:40:34.597Z,99.90
2022-11-03T12:43:02.564Z,99.90
2022-11-03T12:45:30.554Z,99.90
2022-11-03T12:47:58.589Z,99.90
2022-11-03T12:50:26.699Z,99.90
2022-11-03T12:52:55.973Z,99.90
2022-11-03T12:55:23.990Z,99.90
2022-11-03T12:57:52.209Z,99.90
2022-11-03T13:00:20.237Z,99.90
2022-11-03T13:02:48.331Z,99.90
2022-11-03T13:05:16.452Z,99.90
2022-11-03T13:07:44.590Z,99.90
2022-11-03T13:10:13.942Z,99.90
2022-11-03T13:12:42.117Z,99.90
2022-11-03T13:15:13.394Z,99.90
2022-11-03T13:18:11.780Z,99.90
2022-11-03T13:20:31.462Z,99.90
2022-11-03T13:22:59.869Z,99.90
2022-11-03T13:25:29.594Z,99.90
2022-11-03T13:27:58.208Z,99.90
2022-11-03T13:30:27.629Z,99.90
2022-11-03T13:32:55.671Z,99.90
2022-11-03T13:35:23.993Z,99.90
2022-11-03T13:37:52.071Z,99.90
2022-11-03T13:43:10.204Z,99.90
2022-11-03T13:45:40.448Z,99.90
2022-11-03T13:50:56.871Z,99.90
2022-11-03T13:56:19.207Z,99.90
2022-11-03T14:01:39.462Z,99.90
2022-11-03T14:06:56.496Z,99.90
2022-11-03T14:09:24.856Z,99.90
2022-11-03T14:12:10.576Z,99.90
2022-11-03T14:14:39.955Z,99.90
2022-11-03T14:17:07.952Z,99.90
2022-11-03T14:19:42.942Z,99.90
2022-11-03T14:22:14.027Z,99.90
2022-11-03T14:24:42.013Z,99.90
2022-11-03T14:27:11.231Z,99.90
2022-11-03T14:29:40.786Z,99.90
2022-11-03T14:32:08.819Z,99.90
2022-11-03T14:34:38.388Z,99.90
2022-11-03T14:37:09.052Z,99.90
2022-11-03T14:39:37.613Z,99.90
2022-11-03T14:42:05.220Z,99.90
2022-11-03T14:44:34.027Z,99.90
2022-11-03T14:47:04.665Z,99.90
2022-11-03T14:49:33.741Z,99.90
2022-11-03T14:52:03.255Z,99.90
2022-11-03T14:54:32.380Z,99.90
2022-11-03T14:57:00.754Z,99.90
2022-11-03T14:59:28.792Z,99.90
2022-11-03T15:01:57.642Z,99.90
2022-11-03T15:04:27.114Z,99.90
2022-11-03T15:06:57.858Z,99.90
2022-11-03T15:09:26.020Z,99.90
2022-11-03T15:11:54.031Z,99.90
2022-11-03T15:14:22.000Z,99.90
2022-11-03T15:16:50.049Z,99.90
2022-11-03T15:19:18.014Z,99.90
2022-11-03T15:21:47.379Z,99.90
2022-11-03T15:27:03.342Z,99.90
2022-11-03T15:29:31.434Z,99.90
2022-11-03T15:31:59.382Z,99.90
2022-11-03T15:34:27.411Z,99.90
2022-11-03T15:36:56.893Z,99.90
2022-11-03T15:39:24.876Z,99.90
2022-11-03T15:41:52.880Z,99.90
2022-11-03T15:44:20.890Z,99.90
2022-11-03T15:46:49.209Z,99.90
2022-11-03T15:49:17.268Z,99.90
2022-11-03T15:51:45.373Z,99.90
2022-11-03T15:54:14.797Z,99.90
2022-11-03T15:56:43.058Z,99.90
2022-11-03T15:59:10.948Z,99.90
2022-11-03T16:01:38.978Z,99.90
2022-11-03T16:04:07.145Z,99.90
2022-11-03T16:07:06.028Z,99.90
2022-11-03T16:09:26.927Z,99.90
2022-11-03T16:11:56.887Z,99.90
2022-11-03T16:14:25.087Z,99.90
2022-11-03T16:16:53.122Z,99.90
2022-11-03T16:19:21.231Z,99.90
2022-11-03T16:21:49.333Z,99.90
2022-11-03T16:24:17.370Z,99.90
2022-11-03T16:26:46.713Z,99.90
2022-11-03T16:29:14.655Z,99.90
2022-11-03T16:31:42.645Z,99.90
2022-11-03T16:34:10.917Z,99.90
2022-11-03T16:36:39.009Z,99.90
2022-11-03T16:39:07.081Z,99.90
2022-11-03T16:41:35.046Z,99.90
2022-11-03T16:44:04.735Z,99.90
2022-11-03T16:46:32.726Z,99.90
2022-11-03T16:51:34.990Z,99.90
2022-11-03T16:54:02.958Z,99.90
2022-11-03T16:56:31.539Z,99.90
2022-11-03T16:58:59.545Z,99.90
2022-11-03T17:01:29.501Z,99.90
2022-11-03T17:03:58.927Z,99.90
2022-11-03T17:06:26.899Z,99.90
2022-11-03T17:08:55.097Z,99.90
2022-11-03T17:11:36.758Z,99.90
2022-11-03T17:14:09.196Z,99.90
2022-11-03T17:16:38.516Z,99.90
2022-11-03T17:19:06.634Z,99.90
2022-11-03T17:21:34.622Z,99.90
2022-11-03T17:24:03.957Z,99.90
2022-11-03T17:26:42.936Z,99.90
2022-11-03T17:29:20.982Z,99.90
2022-11-03T17:31:51.322Z,99.90
2022-11-03T17:34:24.790Z,99.90
2022-11-03T17:36:53.515Z,99.90
2022-11-03T17:42:14.434Z,99.90
2022-11-03T17:44:42.656Z,99.90
2022-11-03T17:47:12.130Z,99.90
2022-11-03T17:49:40.180Z,99.90
2022-11-03T17:52:14.195Z,99.90
2022-11-03T17:54:42.357Z,99.90
2022-11-03T17:57:17.373Z,99.90
2022-11-03T17:59:48.497Z,99.90
2022-11-03T18:02:20.239Z,99.90
2022-11-03T18:04:48.992Z,99.90
2022-11-03T18:07:21.767Z,99.90
2022-11-03T18:09:50.182Z,99.90
2022-11-03T18:12:39.314Z,99.90
2022-11-03T18:15:13.990Z,99.90
2022-11-03T18:17:44.756Z,99.90
2022-11-03T18:20:17.047Z,99.90
2022-11-03T18:22:46.319Z,99.90
2022-11-03T18:25:15.327Z,99.90
2022-11-03T18:27:43.708Z,99.90
2022-11-03T18:30:17.715Z,99.90
2022-11-03T18:32:48.240Z,99.90
2022-11-03T18:35:19.647Z,99.90
2022-11-03T18:37:47.862Z,99.90
2022-11-03T18:40:16.622Z,99.90
2022-11-03T18:42:44.630Z,99.90
2022-11-03T18:45:14.415Z,99.90
2022-11-03T18:47:42.853Z,99.90
2022-11-03T18:50:15.800Z,99.90
2022-11-03T18:52:47.524Z,99.90
2022-11-03T18:55:17.329Z,99.90
2022-11-03T18:57:46.162Z,99.90
2022-11-03T19:00:19.995Z,99.90
2022-11-03T19:02:48.338Z,99.90
2022-11-03T19:05:20.815Z,99.90
2022-11-03T19:07:51.010Z,99.90
2022-11-03T19:10:22.285Z,99.90
2022-11-03T19:12:50.325Z,99.90
2022-11-03T19:15:21.399Z,99.90
2022-11-03T19:17:51.922Z,99.90
2022-11-03T19:20:23.345Z,99.90
2022-11-03T19:22:51.338Z,99.90
2022-11-03T19:25:19.554Z,99.90
2022-11-03T19:27:49.479Z,99.90
2022-11-03T19:30:21.385Z,99.90
2022-11-03T19:32:52.119Z,99.90
2022-11-03T19:35:23.615Z,99.90
2022-11-03T19:37:56.183Z,99.90
2022-11-03T19:40:24.443Z,99.90
2022-11-03T19:42:51.499Z,99.90
2022-11-03T19:45:22.833Z,99.90
2022-11-03T19:48:22.624Z,99.90
2022-11-03T19:50:44.668Z,99.90
2022-11-03T19:53:19.951Z,99.90
2022-11-03T19:55:48.603Z,99.90
2022-11-03T19:58:18.317Z,99.90
2022-11-03T20:00:47.022Z,99.90
2022-11-03T20:03:15.553Z,99.90
2022-11-03T20:05:49.510Z,99.90
2022-11-03T20:08:20.657Z,99.90
2022-11-03T20:10:49.287Z,99.90
2022-11-03T20:13:19.641Z,99.90
2022-11-03T20:15:48.017Z,99.90
2022-11-03T20:18:16.797Z,99.90
2022-11-03T20:20:48.282Z,99.90
2022-11-03T20:23:20.591Z,99.90
2022-11-03T20:25:49.918Z,99.90
2022-11-03T20:28:20.689Z,99.90
2022-11-03T20:30:50.010Z,99.90
2022-11-03T20:33:19.851Z,99.90
2022-11-03T20:35:50.204Z,99.90
2022-11-03T20:38:20.466Z,99.90
2022-11-03T20:40:51.350Z,99.90
2022-11-03T20:43:26.578Z,99.90
2022-11-03T20:45:55.363Z,99.90
2022-11-03T20:48:23.609Z,99.90
2022-11-03T20:50:54.683Z,99.90
2022-11-03T20:53:25.069Z,99.90
2022-11-03T20:55:54.087Z,99.90
2022-11-03T20:58:26.709Z,99.90
2022-11-03T21:00:57.656Z,99.90
2022-11-03T21:03:53.537Z,99.90
2022-11-03T21:06:19.908Z,99.90
2022-11-03T21:08:49.032Z,99.90
2022-11-03T21:11:25.067Z,99.90
2022-11-03T21:13:54.406Z,99.90
2022-11-03T21:16:40.479Z,99.90
2022-11-03T21:19:34.157Z,99.90
2022-11-03T21:22:03.958Z,99.90
2022-11-03T21:24:31.888Z,99.90
2022-11-03T21:26:59.868Z,99.90
2022-11-03T21:29:53.260Z,99.90
2022-11-03T21:32:17.672Z,99.90
2022-11-03T21:34:45.711Z,99.90
2022-11-03T21:37:16.147Z,99.90
2022-11-03T21:39:44.425Z,99.90
2022-11-03T21:42:31.214Z,99.90
2022-11-03T21:45:00.087Z,99.90
2022-11-03T21:47:28.638Z,99.90
2022-11-03T21:49:55.942Z,99.90
2022-11-03T21:52:32.680Z,99.90
2022-11-03T21:55:01.304Z,99.90
2022-11-03T21:57:29.716Z,99.90
2022-11-03T21:59:59.190Z,99.90
2022-11-03T22:02:29.950Z,99.90
2022-11-03T22:04:58.620Z,99.90
2022-11-03T22:07:32.410Z,99.90
2022-11-03T22:10:00.394Z,99.90
2022-11-03T22:12:28.731Z,99.90
2022-11-03T22:15:22.435Z,99.90
2022-11-03T22:17:50.433Z,99.90
2022-11-03T22:20:41.585Z,99.90
2022-11-03T22:23:29.407Z,99.90
2022-11-03T22:26:16.332Z,99.90
2022-11-03T22:28:44.340Z,99.90
2022-11-03T22:31:29.714Z,99.90
2022-11-03T22:34:15.106Z,99.90
2022-11-03T22:36:43.170Z,99.90
2022-11-03T22:39:30.021Z,99.90
2022-11-03T22:42:15.400Z,99.90
2022-11-03T22:44:57.328Z,99.90
2022-11-03T22:47:25.319Z,99.90
2022-11-03T22:49:53.384Z,99.90
2022-11-03T22:52:21.454Z,99.90
2022-11-03T22:54:49.839Z,99.90
2022-11-03T22:57:17.804Z,99.90
2022-11-03T22:59:45.772Z,99.90
2022-11-03T23:02:13.818Z,99.90
2022-11-03T23:04:41.806Z,99.90
2022-11-03T23:07:09.755Z,99.90
2022-11-03T23:09:37.728Z,99.90
2022-11-03T23:12:07.421Z,99.90
2022-11-03T23:14:49.242Z,99.90
2022-11-03T23:17:17.239Z,99.90
2022-11-03T23:20:02.783Z,99.90
2022-11-03T23:22:30.726Z,99.90
2022-11-03T23:25:00.405Z,99.90
2022-11-03T23:27:29.937Z,99.90
2022-11-03T23:29:57.890Z,99.90
2022-11-03T23:32:25.859Z,99.90
2022-11-03T23:34:53.902Z,99.90
2022-11-03T23:37:21.857Z,99.90
2022-11-03T23:39:50.011Z,99.90
2022-11-03T23:42:18.009Z,99.90
2022-11-03T23:45:04.718Z,99.90
2022-11-03T23:48:04.633Z,99.90
2022-11-03T23:50:32.645Z,99.90
2022-11-03T23:53:00.562Z,99.90
2022-11-03T23:55:49.303Z,99.90
2022-11-03T23:58:19.380Z,99.90
